KPIE/PIE METAR and TAF weather

Enter ICAO airport designator
Station Type Date Time Source
KPIE METAR 2022/01/23 11:53 UTC NOAA

KPIE 231153Z 36008KT 10SM BKN010 OVC014 07/06 A3016 RMK AO2 CIG 009V013 SLP212 T00720056 10072 20067 53002 $


Station Type Date Time Source
KPIE Decoded METAR 2022/01/23 11:53 UTC NOAA

ST PETERSBURG/CLEARWATER, FL, United States (KPIE) 27-55N 82-41W 4M
Jan 23, 2022 - 06:53 AM EST / 2022.01.23 1153 UTC
Wind: from the N (360 degrees) at 9 MPH (8 KT):0
Visibility: 10 mile(s):0
Sky conditions: overcast
Temperature: 45.0 F (7.2 C)
Dew Point: 42.1 F (5.6 C)
Relative Humidity: 89%
Pressure (altimeter): 30.16 in. Hg (1021 hPa)
Pressure tendency: 0.01 inches (0.2 hPa) higher than three hours ago
ob: KPIE 231153Z 36008KT 10SM BKN010 OVC014 07/06 A3016 RMK AO2 CIG 009V013 SLP212 T00720056 10072 20067 53002
cycle: 12

Station Type Date Time Source
KPIE TAF 2022/01/23 12:34 UTC NOAA

TAF KPIE 231132Z 2312/2412 35007KT P6SM BKN009 OVC015
TEMPO 2312/2314 SCT010 BKN020
FM231400 34009KT P6SM FEW010 BKN020
FM231700 32011KT P6SM SKC
FM240300 34005KT P6SM SKC

Example: see airport list